Time;durP1;ratioP1;P1;durP2;ratioP2;P2;SDS_P1;SDS_P2;PMS_P1;PMS_P2;Temp;Humidity;BMP_temperature;BMP_pressure;BME280_temperature;BME280_humidity;BME280_pressure;Samples;Min_cycle;Max_cycle;Signal;HPM_P1;HPM_P2
2024/01/07 00:01:02;;;;;;;12.90;3.65;;;0.50;82.90;;;;;;5044411;28;20036;-74
2024/01/07 00:03:28;;;;;;;9.55;3.67;;;0.50;84.40;;;;;;5043835;28;20362;-74
2024/01/07 00:05:53;;;;;;;16.75;3.95;;;0.50;84.40;;;;;;5034890;28;20071;-74
2024/01/07 00:08:19;;;;;;;8.63;3.78;;;0.40;86.50;;;;;;5032489;28;20377;-74
2024/01/07 00:10:45;;;;;;;12.75;3.58;;;0.40;87.70;;;;;;5042392;28;20085;-74
2024/01/07 00:13:10;;;;;;;11.85;3.42;;;0.40;87.20;;;;;;5026002;28;20045;-74
2024/01/07 00:15:36;;;;;;;9.20;3.58;;;;;;;;;;5017199;28;20388;-76
2024/01/07 00:18:02;;;;;;;13.95;3.60;;;0.30;84.30;;;;;;5033357;28;20442;-74
2024/01/07 00:20:28;;;;;;;6.88;3.25;;;0.30;85.40;;;;;;5033019;28;20151;-75
2024/01/07 00:22:53;;;;;;;9.70;3.35;;;0.30;86.90;;;;;;5032191;28;20034;-74
2024/01/07 00:25:19;;;;;;;11.57;3.75;;;0.20;88.30;;;;;;5033107;28;20147;-74
2024/01/07 00:27:45;;;;;;;11.20;3.65;;;0.20;88.80;;;;;;5033025;28;20029;-74
2024/01/07 00:30:11;;;;;;;10.63;3.42;;;0.30;85.90;;;;;;5033218;28;20032;-73
2024/01/07 00:32:37;;;;;;;8.25;3.78;;;;;;;;;;5033609;28;20097;-74
2024/01/07 00:35:03;;;;;;;8.35;3.65;;;0.20;86.00;;;;;;5033423;28;20061;-74
2024/01/07 00:37:28;;;;;;;8.15;3.75;;;0.10;87.00;;;;;;5035645;28;20119;-74
2024/01/07 00:39:54;;;;;;;9.45;3.67;;;0.80;89.10;;;;;;5037899;28;20029;-74
2024/01/07 00:42:20;;;;;;;11.77;3.97;;;0.10;88.50;;;;;;5031950;28;20033;-75
2024/01/07 00:44:46;;;;;;;7.80;3.40;;;-0.20;90.60;;;;;;5031671;28;20025;-74
2024/01/07 00:47:12;;;;;;;9.95;3.92;;;;;;;;;;5031779;28;20025;-75
2024/01/07 00:49:40;;;;;;;8.32;3.30;;;;;;;;;;5031760;28;20033;-73
2024/01/07 00:52:05;;;;;;;7.75;3.08;;;;;;;;;;5031837;28;20265;-75
2024/01/07 00:54:31;;;;;;;10.48;3.65;;;;;;;;;;5031590;28;20484;-75
2024/01/07 00:56:57;;;;;;;8.35;3.30;;;;;;;;;;5032506;28;20056;-74
2024/01/07 00:59:24;;;;;;;9.88;3.95;;;;;;;;;;5016162;28;20461;-75
2024/01/07 01:01:50;;;;;;;9.18;3.42;;;;;;;;;;5009788;28;20033;-74
2024/01/07 01:04:16;;;;;;;8.95;3.35;;;;;;;;;;5014568;28;20026;-75
2024/01/07 01:06:42;;;;;;;13.18;4.00;;;;;;;;;;5032522;28;20133;-75
2024/01/07 01:09:08;;;;;;;9.35;3.30;;;;;;;;;;5032047;28;20053;-74
2024/01/07 01:11:34;;;;;;;9.00;3.42;;;;;;;;;;5031614;28;20142;-74
2024/01/07 01:14:00;;;;;;;8.75;3.33;;;;;;;;;;5041004;28;20014;-75
2024/01/07 01:16:26;;;;;;;12.55;3.53;;;;;;;;;;5035936;28;20030;-74
2024/01/07 01:18:52;;;;;;;8.95;3.78;;;;;;;;;;5018110;28;20022;-73
2024/01/07 01:21:18;;;;;;;7.90;3.35;;;;;;;;;;5032801;28;20397;-73
2024/01/07 01:23:44;;;;;;;7.05;3.50;;;;;;;;;;5031085;28;20026;-73
2024/01/07 01:26:10;;;;;;;9.85;4.03;;;;;;;;;;5031393;28;20031;-73
2024/01/07 01:28:36;;;;;;;10.85;3.83;;;;;;;;;;5031428;28;20025;-75
2024/01/07 01:31:02;;;;;;;8.75;3.60;;;;;;;;;;5031467;28;20061;-75
2024/01/07 01:33:28;;;;;;;9.52;3.92;;;;;;;;;;5031222;28;20033;-74
2024/01/07 01:35:54;;;;;;;10.18;3.42;;;;;;;;;;5031378;28;20026;-75
2024/01/07 01:38:20;;;;;;;9.88;3.20;;;;;;;;;;5031515;28;20576;-75
2024/01/07 01:40:52;;;;;;;10.95;3.75;;;;;;;;;;5031275;28;20030;-74
2024/01/07 01:43:24;;;;;;;9.88;3.03;;;;;;;;;;5030970;28;20021;-73
2024/01/07 01:45:51;;;;;;;11.90;3.63;;;;;;;;;;5031226;28;20026;-74
2024/01/07 01:48:17;;;;;;;7.93;2.85;;;;;;;;;;5031092;28;20034;-75
2024/01/07 01:50:43;;;;;;;11.25;3.33;;;;;;;;;;5031222;28;20100;-74
2024/01/07 01:53:09;;;;;;;10.55;3.25;;;;;;;;;;5030892;28;20025;-75
2024/01/07 01:55:35;;;;;;;9.10;3.72;;;;;;;;;;5031076;28;20092;-74
2024/01/07 01:58:03;;;;;;;11.80;3.33;;;;;;;;;;5031091;28;20057;-74
2024/01/07 02:00:30;;;;;;;7.82;3.45;;;;;;;;;;5031207;28;20017;-75
2024/01/07 02:02:56;;;;;;;10.85;3.47;;;;;;;;;;5032118;28;20100;-75
2024/01/07 02:05:22;;;;;;;8.90;3.05;;;;;;;;;;5034810;28;20061;-74
2024/01/07 02:07:48;;;;;;;8.88;3.05;;;;;;;;;;5030830;28;20460;-75
2024/01/07 02:10:14;;;;;;;9.43;3.17;;;;;;;;;;5031270;28;20017;-75
2024/01/07 02:12:41;;;;;;;8.32;2.92;;;;;;;;;;5031069;28;20028;-77
2024/01/07 02:15:07;;;;;;;9.32;3.05;;;;;;;;;;5030959;28;20022;-75
2024/01/07 02:17:33;;;;;;;6.28;2.90;;;;;;;;;;5034174;28;20448;-75
2024/01/07 02:19:59;;;;;;;10.48;3.00;;;;;;;;;;5034481;28;20180;-74
2024/01/07 02:22:25;;;;;;;10.90;3.00;;;;;;;;;;5034399;28;20025;-75
2024/01/07 02:24:51;;;;;;;7.45;3.13;;;;;;;;;;5035280;28;20025;-74
2024/01/07 02:27:22;;;;;;;5.63;2.90;;;;;;;;;;5035464;28;20022;-74
2024/01/07 02:29:48;;;;;;;6.25;3.10;;;;;;;;;;5034483;28;20021;-73
2024/01/07 02:32:14;;;;;;;14.25;3.30;;;;;;;;;;5034479;28;20025;-74
2024/01/07 02:34:40;;;;;;;13.73;2.67;;;;;;;;;;5034266;28;20033;-73
2024/01/07 02:37:06;;;;;;;6.18;3.00;;;;;;;;;;5034395;28;20100;-74
2024/01/07 02:39:32;;;;;;;12.82;3.25;;;;;;;;;;5034418;28;20500;-73
2024/01/07 02:41:58;;;;;;;7.22;2.75;;;;;;;;;;5034504;28;20083;-74
2024/01/07 02:44:24;;;;;;;12.52;3.00;;;;;;;;;;5036039;28;20025;-73
2024/01/07 02:46:50;;;;;;;6.32;3.20;;;;;;;;;;5040449;28;20136;-74
2024/01/07 02:49:16;;;;;;;10.60;3.35;;;;;;;;;;5045375;28;20032;-73
2024/01/07 02:51:45;;;;;;;6.82;3.05;;;;;;;;;;5034396;28;20033;-74
2024/01/07 02:54:11;;;;;;;7.72;2.78;;;;;;;;;;5054130;28;20025;-73
2024/01/07 02:56:37;;;;;;;15.38;3.38;;;;;;;;;;5039758;28;20040;-73
2024/01/07 02:59:02;;;;;;;6.32;2.78;;;;;;;;;;5034199;28;20435;-75
2024/01/07 03:01:29;;;;;;;7.57;3.05;;;;;;;;;;5033900;28;20029;-74
2024/01/07 03:03:55;;;;;;;6.65;3.08;;;;;;;;;;5016847;28;20480;-74
2024/01/07 03:06:21;;;;;;;8.93;2.58;;;;;;;;;;5016204;28;20037;-74
2024/01/07 03:08:49;;;;;;;9.15;3.30;;;;;;;;;;5034046;28;20028;-74
2024/01/07 03:11:15;;;;;;;10.23;2.85;;;;;;;;;;5034794;28;20044;-75
2024/01/07 03:13:41;;;;;;;10.40;3.00;;;;;;;;;;5033918;28;20460;-74
2024/01/07 03:16:07;;;;;;;6.57;2.67;;;;;;;;;;5033669;28;20056;-75
2024/01/07 03:18:33;;;;;;;12.20;3.03;;;;;;;;;;5034051;28;20057;-74
2024/01/07 03:20:59;;;;;;;10.25;2.53;;;;;;;;;;5035155;28;20061;-74
2024/01/07 03:23:25;;;;;;;7.93;2.67;;;;;;;;;;5034454;28;20037;-74
2024/01/07 03:25:51;;;;;;;8.90;2.70;;;;;;;;;;5035525;28;20108;-73
2024/01/07 03:28:17;;;;;;;7.45;2.47;;;;;;;;;;5035598;28;20381;-74
2024/01/07 03:30:43;;;;;;;6.15;2.42;;;;;;;;;;5039072;28;20029;-73
2024/01/07 03:33:10;;;;;;;7.53;2.17;;;;;;;;;;5038505;28;20080;-75
2024/01/07 03:35:36;;;;;;;11.35;2.70;;;;;;;;;;5042736;28;20088;-75
2024/01/07 03:38:01;;;;;;;7.28;2.55;;;;;;;;;;5046632;28;20044;-75
2024/01/07 03:40:27;;;;;;;8.25;2.50;;;;;;;;;;5039929;28;20477;-74
2024/01/07 03:42:53;;;;;;;8.40;2.58;;;;;;;;;;5021535;28;20110;-74
2024/01/07 03:45:19;;;;;;;7.70;2.47;;;;;;;;;;5053318;28;20028;-73
2024/01/07 03:47:45;;;;;;;4.93;2.40;;;;;;;;;;5048153;28;20025;-73
2024/01/07 03:50:11;;;;;;;11.10;2.63;;;;;;;;;;5037140;28;20029;-74
2024/01/07 03:52:37;;;;;;;6.25;2.40;;;;;;;;;;5036424;28;20033;-74
2024/01/07 03:55:03;;;;;;;8.05;2.58;;;;;;;;;;5064566;28;20024;-74
2024/01/07 03:57:29;;;;;;;9.32;2.05;;;;;;;;;;5067868;28;20033;-75
2024/01/07 03:59:55;;;;;;;12.65;2.30;;;;;;;;;;5061786;28;20030;-74
2024/01/07 04:02:21;;;;;;;11.77;2.40;;;;;;;;;;5043760;28;20293;-72
2024/01/07 04:04:47;;;;;;;10.20;2.33;;;;;;;;;;5037677;28;20041;-75
2024/01/07 04:07:13;;;;;;;7.20;2.40;;;;;;;;;;5033355;28;20033;-73
2024/01/07 04:09:39;;;;;;;7.20;2.15;;;;;;;;;;5032238;28;20104;-73
2024/01/07 04:12:05;;;;;;;6.47;2.38;;;;;;;;;;5032586;28;20079;-74
2024/01/07 04:14:33;;;;;;;8.75;2.40;;;;;;;;;;5049603;28;20101;-74
2024/01/07 04:16:59;;;;;;;8.57;2.28;;;;;;;;;;5053269;28;20025;-74
2024/01/07 04:19:25;;;;;;;4.25;1.83;;;;;;;;;;5062379;28;20040;-73
2024/01/07 04:21:51;;;;;;;6.57;2.00;;;;;;;;;;5059427;28;20041;-73
2024/01/07 04:24:17;;;;;;;5.43;1.95;;;;;;;;;;5056919;28;20021;-74
2024/01/07 04:26:43;;;;;;;7.22;1.90;;;;;;;;;;5059414;28;20400;-73
2024/01/07 04:29:09;;;;;;;7.40;2.35;;;;;;;;;;5053329;28;20025;-73
2024/01/07 04:31:35;;;;;;;6.43;2.30;;;;;;;;;;5051936;28;20465;-72
2024/01/07 04:34:01;;;;;;;7.75;2.30;;;;;;;;;;5050912;28;20044;-72
2024/01/07 04:36:27;;;;;;;9.95;2.17;;;;;;;;;;5051629;28;20033;-72
2024/01/07 04:38:53;;;;;;;4.57;2.10;;;;;;;;;;5044130;28;20391;-74
2024/01/07 04:41:19;;;;;;;5.38;2.30;;;;;;;;;;5032164;28;20033;-74
2024/01/07 04:43:45;;;;;;;8.07;2.22;;;;;;;;;;5031347;28;20100;-73
2024/01/07 04:46:11;;;;;;;5.63;1.98;;;;;;;;;;5013996;28;20501;-73
2024/01/07 04:48:37;;;;;;;7.53;2.42;;;;;;;;;;5031818;28;20049;-72
2024/01/07 04:51:03;;;;;;;6.18;2.35;;;;;;;;;;5031358;28;20469;-73
2024/01/07 04:53:29;;;;;;;4.05;2.22;;;;;;;;;;5031386;28;20022;-72
2024/01/07 04:55:55;;;;;;;10.23;2.80;;;;;;;;;;5031835;28;20594;-73
2024/01/07 04:58:21;;;;;;;7.63;2.40;;;;;;;;;;5035539;28;20104;-73
2024/01/07 05:00:47;;;;;;;8.23;3.03;;;;;;;;;;5018693;28;20109;-74
2024/01/07 05:03:13;;;;;;;7.88;2.25;;;;;;;;;;5015544;28;20491;-75
2024/01/07 05:05:39;;;;;;;5.25;2.15;;;;;;;;;;5016169;28;20473;-73
2024/01/07 05:08:06;;;;;;;5.07;1.90;;;;;;;;;;5034860;28;20021;-74
2024/01/07 05:10:32;;;;;;;8.82;2.25;;;;;;;;;;5019341;28;20025;-74
2024/01/07 05:12:58;;;;;;;4.78;2.03;;;;;;;;;;5037543;28;20409;-75
2024/01/07 05:15:24;;;;;;;6.38;2.50;;;;;;;;;;5032258;28;20049;-72
2024/01/07 05:17:50;;;;;;;5.18;2.25;;;;;;;;;;5031377;28;20080;-73
2024/01/07 05:20:16;;;;;;;5.57;2.08;;;;;;;;;;5031301;28;20033;-73
2024/01/07 05:22:42;;;;;;;6.53;2.47;;;;;;;;;;5030934;28;20485;-73
2024/01/07 05:25:08;;;;;;;7.68;2.30;;;;;;;;;;5031203;28;20060;-72
2024/01/07 05:27:34;;;;;;;6.53;2.40;;;;;;;;;;5031210;28;20060;-72
2024/01/07 05:30:00;;;;;;;7.78;2.30;;;;;;;;;;5032578;28;20026;-74
2024/01/07 05:32:26;;;;;;;7.53;2.95;;;;;;;;;;5033266;28;20021;-74
2024/01/07 05:34:52;;;;;;;6.20;2.30;;;;;;;;;;5033181;28;20033;-74
2024/01/07 05:37:18;;;;;;;5.43;2.15;;;;;;;;;;5036806;28;20111;-73
2024/01/07 05:39:44;;;;;;;8.13;2.40;;;;;;;;;;5016599;28;20051;-76
2024/01/07 05:42:10;;;;;;;9.15;2.35;;;;;;;;;;5031615;28;20481;-74
2024/01/07 05:44:36;;;;;;;6.25;2.45;;;;;;;;;;5031940;28;20034;-78
2024/01/07 05:47:04;;;;;;;6.75;2.22;;;;;;;;;;5037403;28;20029;-74
2024/01/07 05:49:30;;;;;;;9.13;3.10;;;;;;;;;;5033806;28;20392;-76
2024/01/07 05:51:56;;;;;;;5.63;2.58;;;;;;;;;;5033670;28;20487;-74
2024/01/07 05:54:22;;;;;;;7.13;3.13;;;;;;;;;;5021244;28;20061;-74
2024/01/07 05:56:48;;;;;;;7.72;2.70;;;;;;;;;;5039397;28;20039;-75
2024/01/07 05:59:14;;;;;;;8.75;3.25;;;;;;;;;;5038276;28;20116;-75
2024/01/07 06:01:40;;;;;;;9.35;3.58;;;;;;;;;;5037789;28;20040;-76
2024/01/07 06:04:06;;;;;;;7.88;3.03;;;;;;;;;;5038016;28;20029;-75
2024/01/07 06:06:33;;;;;;;9.02;3.13;;;;;;;;;;5034232;28;20029;-74
2024/01/07 06:08:59;;;;;;;11.48;3.38;;;;;;;;;;5029933;28;20022;-74
2024/01/07 06:11:25;;;;;;;6.95;2.75;;;;;;;;;;5035238;28;20021;-74
2024/01/07 06:13:51;;;;;;;5.00;3.03;;;;;;;;;;5015439;28;20408;-75
2024/01/07 06:16:18;;;;;;;8.55;2.70;;;;;;;;;;5032591;28;20013;-76
2024/01/07 06:18:44;;;;;;;7.50;2.45;;;;;;;;;;5034461;28;20117;-75
2024/01/07 06:21:10;;;;;;;7.47;2.63;;;;;;;;;;5036788;28;20025;-76
2024/01/07 06:23:36;;;;;;;5.72;2.65;;;;;;;;;;5035792;28;20071;-77
2024/01/07 06:26:05;;;;;;;8.57;3.13;;;;;;;;;;5033130;28;20048;-74
2024/01/07 06:28:32;;;;;;;10.70;3.78;;;;;;;;;;5034338;28;20022;-73
2024/01/07 06:30:58;;;;;;;12.20;3.30;;;;;;;;;;5034749;28;20030;-72
2024/01/07 06:33:23;;;;;;;8.95;3.63;;;;;;;;;;5035635;28;20029;-73
2024/01/07 06:35:49;;;;;;;10.40;3.08;;;;;;;;;;5017855;28;20110;-72
2024/01/07 06:38:17;;;;;;;9.02;3.00;;;;;;;;;;5037009;28;20032;-74
2024/01/07 06:40:43;;;;;;;11.15;2.83;;;;;;;;;;5037315;28;20037;-74
2024/01/07 06:43:09;;;;;;;8.73;3.30;;;;;;;;;;5034637;28;20440;-74
2024/01/07 06:45:35;;;;;;;10.07;3.28;;;;;;;;;;5037475;28;20083;-73
2024/01/07 06:48:01;;;;;;;7.32;3.00;;;;;;;;;;5039091;28;20064;-74
2024/01/07 06:50:27;;;;;;;12.43;3.63;;;;;;;;;;5035844;28;20060;-74
2024/01/07 06:52:53;;;;;;;12.75;4.60;;;;;;;;;;5037626;28;20025;-74
2024/01/07 06:55:19;;;;;;;15.32;4.53;;;;;;;;;;5041359;28;20033;-74
2024/01/07 06:57:45;;;;;;;13.15;4.95;;;;;;;;;;5039109;28;20061;-74
2024/01/07 07:00:11;;;;;;;13.65;4.82;;;;;;;;;;5034892;28;20021;-74
2024/01/07 07:02:37;;;;;;;16.33;5.13;;;;;;;;;;5036045;28;20036;-74
2024/01/07 07:05:03;;;;;;;13.40;4.78;;;;;;;;;;5035981;28;20185;-74
2024/01/07 07:07:29;;;;;;;15.02;5.63;;;;;;;;;;5034015;28;20029;-74
2024/01/07 07:09:55;;;;;;;15.40;5.20;;;;;;;;;;5034796;28;20025;-74
2024/01/07 07:12:21;;;;;;;16.85;5.38;;;;;;;;;;5035796;28;20025;-73
2024/01/07 07:14:47;;;;;;;10.43;5.25;;;;;;;;;;5035571;28;20029;-75
2024/01/07 07:17:14;;;;;;;21.38;6.40;;;;;;;;;;5032215;28;20025;-75
2024/01/07 07:19:40;;;;;;;13.18;5.57;;;;;;;;;;5036786;28;20368;-75
2024/01/07 07:22:06;;;;;;;15.38;5.65;;;;;;;;;;5035170;28;20104;-76
2024/01/07 07:24:32;;;;;;;14.20;5.47;;;;;;;;;;5033182;28;20044;-73
2024/01/07 07:26:58;;;;;;;12.48;5.40;;;;;;;;;;5033491;28;20029;-73
2024/01/07 07:29:24;;;;;;;12.52;5.45;;;;;;;;;;5033421;28;20068;-73
2024/01/07 07:31:50;;;;;;;17.20;5.47;;;;;;;;;;5034388;28;20385;-72
2024/01/07 07:34:16;;;;;;;16.25;5.50;;;;;;;;;;5032780;28;20029;-73
2024/01/07 07:36:43;;;;;;;13.65;5.47;;;;;;;;;;5033075;28;20428;-73
2024/01/07 07:39:09;;;;;;;14.60;5.30;;;;;;;;;;5033058;28;20392;-71
2024/01/07 07:41:35;;;;;;;13.75;4.75;;;;;;;;;;5033027;28;20026;-72
2024/01/07 07:44:01;;;;;;;13.68;4.78;;;;;;;;;;5033271;28;20075;-74
2024/01/07 07:46:27;;;;;;;11.93;4.80;;;;;;;;;;5033095;28;20033;-72
2024/01/07 07:48:53;;;;;;;15.60;5.43;;;;;;;;;;5032659;28;20060;-76
2024/01/07 07:51:20;;;;;;;13.35;4.63;;;;;;;;;;5032848;28;20029;-73
2024/01/07 07:53:46;;;;;;;14.23;5.38;;;;;;;;;;5040438;28;20081;-76
2024/01/07 07:56:12;;;;;;;11.23;4.78;;;;;;;;;;5028220;28;20025;-74
2024/01/07 07:58:39;;;;;;;8.68;3.90;;;;;;;;;;5021867;28;20026;-73
2024/01/07 08:01:06;;;;;;;11.15;4.57;;;;;;;;;;5034814;28;20402;-74
2024/01/07 08:03:32;;;;;;;11.23;5.65;;;;;;;;;;5035665;28;20033;-73
2024/01/07 08:05:58;;;;;;;14.25;4.95;;;;;;;;;;5017627;28;20075;-73
2024/01/07 08:08:24;;;;;;;19.02;5.03;;;;;;;;;;5033057;28;20048;-74
2024/01/07 08:10:51;;;;;;;13.25;5.53;;;;;;;;;;5034233;28;20045;-74
2024/01/07 08:13:17;;;;;;;12.00;5.70;;;;;;;;;;5031350;28;20053;-73
2024/01/07 08:15:43;;;;;;;12.10;4.57;;;;;;;;;;5030515;28;20324;-73
2024/01/07 08:18:09;;;;;;;13.32;5.38;;;;;;;;;;5036107;28;20461;-74
2024/01/07 08:20:35;;;;;;;14.45;5.05;;;;;;;;;;5050677;28;20086;-73
2024/01/07 08:23:01;;;;;;;13.45;5.00;;;;;;;;;;5050130;28;20032;-73
2024/01/07 08:25:28;;;;;;;11.38;4.57;;;;;;;;;;5050667;28;20092;-72
2024/01/07 08:27:53;;;;;;;14.05;4.93;;;;;;;;;;5050426;28;20021;-73
2024/01/07 08:30:19;;;;;;;13.02;5.25;;;;;;;;;;5050542;28;20079;-73
2024/01/07 08:32:45;;;;;;;10.40;4.93;;;;;;;;;;5050078;28;20021;-74
2024/01/07 08:35:12;;;;;;;14.60;4.82;;;;;;;;;;5052844;28;20471;-74
2024/01/07 08:37:38;;;;;;;13.32;5.43;;;;;;;;;;5054959;28;20032;-73
2024/01/07 08:40:04;;;;;;;13.07;4.53;;;;;;;;;;5054958;28;20029;-74
2024/01/07 08:42:30;;;;;;;9.80;4.30;;;;;;;;;;5051153;28;20025;-74
2024/01/07 08:44:56;;;;;;;15.35;4.75;;;;;;;;;;5050495;28;20029;-73
2024/01/07 08:47:22;;;;;;;11.48;4.88;;;;;;;;;;5033968;28;20046;-73
2024/01/07 08:49:48;;;;;;;16.50;5.10;;;;;;;;;;5034104;28;20033;-75
2024/01/07 08:52:15;;;;;;;14.90;5.25;;;;;;;;;;5053193;28;20529;-73
2024/01/07 08:54:41;;;;;;;20.75;5.00;;;;;;;;;;5036006;28;20021;-73
2024/01/07 08:57:08;;;;;;;19.50;5.50;;;;;;;;;;5053366;28;20074;-73
2024/01/07 08:59:35;;;;;;;11.13;4.72;;;;;;;;;;5051523;28;20025;-73
2024/01/07 09:02:01;;;;;;;12.00;4.82;;;;;;;;;;5051720;28;20036;-74
2024/01/07 09:04:27;;;;;;;10.52;4.55;;;;;;;;;;5051532;28;20029;-72
2024/01/07 09:06:53;;;;;;;15.55;4.70;;;;;;;;;;5051293;28;20025;-73
2024/01/07 09:09:19;;;;;;;10.20;4.38;;;;;;;;;;5051498;28;20025;-74
2024/01/07 09:11:45;;;;;;;12.98;4.47;;;;;;;;;;5051367;28;20031;-75
2024/01/07 09:14:11;;;;;;;18.70;4.90;;;;;;;;;;5049879;28;20435;-73
2024/01/07 09:16:37;;;;;;;12.68;4.53;;;;;;;;;;5050446;28;20389;-74
2024/01/07 09:19:03;;;;;;;11.95;4.95;;;;;;;;;;5050240;28;20037;-74
2024/01/07 09:21:29;;;;;;;12.88;5.38;;;;;;;;;;5050240;28;20021;-73
2024/01/07 09:23:55;;;;;;;11.95;5.07;;;;;;;;;;5050768;28;20101;-74
2024/01/07 09:26:21;;;;;;;12.85;5.13;;;;;;;;;;5054207;28;20029;-75
2024/01/07 09:28:47;;;;;;;12.85;4.70;;;;;;;;;;5038405;28;20704;-75
2024/01/07 09:31:13;;;;;;;14.93;5.22;;;;;;;;;;5057714;28;20017;-75
2024/01/07 09:33:39;;;;;;;10.00;5.20;;;;;;;;;;5054925;28;20396;-75
2024/01/07 09:36:07;;;;;;;15.45;5.25;;;;;;;;;;5056735;28;20048;-74
2024/01/07 09:38:33;;;;;;;13.90;4.70;;;;;;;;;;5036273;28;20029;-73
2024/01/07 09:40:59;;;;;;;8.63;4.18;;;;;;;;;;5054522;28;20040;-74
2024/01/07 09:43:25;;;;;;;12.68;5.30;;;;;;;;;;5056537;28;20025;-74
2024/01/07 09:45:52;;;;;;;13.38;4.70;;;;;;;;;;5057855;28;20029;-74
2024/01/07 09:48:18;;;;;;;10.45;4.13;;;;;;;;;;5057973;28;20064;-73
2024/01/07 09:50:44;;;;;;;12.45;5.15;;;;;;;;;;5058124;28;20025;-73
2024/01/07 09:53:14;;;;;;;10.80;4.43;;;;;;;;;;5053798;28;20029;-75
2024/01/07 09:55:53;;;;;;;10.65;4.10;;;;;;;;;;5053918;28;20029;-74
2024/01/07 09:58:19;;;;;;;12.45;4.82;;;;;;;;;;5053565;28;20025;-73
2024/01/07 10:00:45;;;;;;;11.63;4.07;;;;;;;;;;5053669;28;20032;-75
2024/01/07 10:03:11;;;;;;;9.07;3.92;;;;;;;;;;5053080;28;20025;-73
2024/01/07 10:05:37;;;;;;;8.43;3.72;;;;;;;;;;5053162;28;20028;-72
2024/01/07 10:08:03;;;;;;;11.88;4.10;;;;;;;;;;5035986;28;20029;-74
2024/01/07 10:10:29;;;;;;;9.75;3.78;;;;;;;;;;5053687;28;20109;-73
2024/01/07 10:12:56;;;;;;;9.55;3.88;;;;;;;;;;5053112;28;20061;-73
2024/01/07 10:15:22;;;;;;;10.20;3.90;;;;;;;;;;5053234;28;20538;-73
2024/01/07 10:17:48;;;;;;;12.15;3.50;;;;;;;;;;5053561;28;20037;-73
2024/01/07 10:20:17;;;;;;;11.57;3.58;;;;;;;;;;5053061;28;20025;-72
2024/01/07 10:22:47;;;;;;;9.35;3.40;;;;;;;;;;5052714;28;20037;-74
2024/01/07 10:25:15;;;;;;;9.07;3.35;;;;;;;;;;5054137;28;20025;-75
2024/01/07 10:27:41;;;;;;;13.85;3.30;;;;;;;;;;5056067;28;20087;-74
2024/01/07 10:30:07;;;;;;;10.10;4.43;;;;;;;;;;5058554;28;20024;-75
2024/01/07 10:32:33;;;;;;;7.47;3.70;;;;;;;;;;5061090;28;20442;-73
2024/01/07 10:35:03;;;;;;;11.88;5.43;;;;;;;;;;5064846;28;20082;-74
2024/01/07 10:37:29;;;;;;;6.13;3.10;;;;;;;;;;5052472;28;20029;-73
2024/01/07 10:40:00;;;;;;;7.47;3.65;;;;;;;;;;5053044;28;20100;-73
2024/01/07 10:42:27;;;;;;;11.60;4.50;;;;;;;;;;5052960;28;20065;-73
2024/01/07 10:44:53;;;;;;;7.82;3.58;;;;;;;;;;5063158;28;20112;-75
2024/01/07 10:47:20;;;;;;;7.85;3.90;;;;;;;;;;5062792;28;20025;-74
2024/01/07 10:49:50;;;;;;;13.57;4.70;;;;;;;;;;5063747;28;20021;-75
2024/01/07 10:52:16;;;;;;;12.45;5.15;;;;;;;;;;5061494;28;20017;-75
2024/01/07 10:54:43;;;;;;;15.57;4.63;;;;;;;;;;5066718;28;20035;-74
2024/01/07 10:57:14;;;;;;;7.65;4.00;;;;;;;;;;5071361;28;20139;-74
2024/01/07 10:59:41;;;;;;;8.73;3.92;;;;;;;;;;5067061;28;20029;-74
2024/01/07 11:02:08;;;;;;;9.60;3.53;;;;;;;;;;5066146;28;20031;-75
2024/01/07 11:04:37;;;;;;;11.00;4.40;;;;;;;;;;5065571;28;20025;-75
2024/01/07 11:07:19;;;;;;;11.10;3.95;;;;;;;;;;5053148;28;20033;-73
2024/01/07 11:10:04;;;;;;;10.43;3.97;;;;;;;;;;5052888;28;20025;-74
2024/01/07 11:12:31;;;;;;;12.32;4.32;;;;;;;;;;5057930;28;20075;-77
2024/01/07 11:14:58;;;;;;;10.50;4.32;;;;;;;;;;5036007;28;20056;-72
2024/01/07 11:17:33;;;;;;;18.13;5.90;;;;;;;;;;5052963;28;20541;-75
2024/01/07 11:20:03;;;;;;;9.85;4.00;;;;;;;;;;5053599;28;20035;-75
2024/01/07 11:22:29;;;;;;;11.32;4.45;;;;;;;;;;5055368;28;20025;-74
2024/01/07 11:24:59;;;;;;;7.78;3.40;;;;;;;;;;5055380;28;20033;-75
2024/01/07 11:27:25;;;;;;;9.80;3.22;;;;;;;;;;5039002;28;20044;-74
2024/01/07 11:29:58;;;;;;;15.05;4.95;;;;;;;;;;5055940;28;20051;-76
2024/01/07 11:32:25;;;;;;;7.95;3.78;;;;;;;;;;5053020;28;20357;-73
2024/01/07 11:34:53;;;;;;;12.07;4.28;;;;;;;;;;5050498;28;20037;-74
2024/01/07 11:37:19;;;;;;;11.80;4.30;;;;;;;;;;5051299;28;20021;-73
2024/01/07 11:39:46;;;;;;;15.18;5.55;;;;;;;;;;5051953;28;20235;-73
2024/01/07 11:42:12;;;;;;;10.43;5.00;;;;;;;;;;5051787;28;20447;-73
2024/01/07 11:44:38;;;;;;;8.52;3.63;;;;;;;;;;5051293;28;20051;-76
2024/01/07 11:47:05;;;;;;;10.27;3.55;;;;;;;;;;5052700;28;20037;-75
2024/01/07 11:49:32;;;;;;;9.23;3.80;;;;;;;;;;5034856;28;20021;-75
2024/01/07 11:51:58;;;;;;;6.55;3.75;;;;;;;;;;5052207;28;20056;-75
2024/01/07 11:54:24;;;;;;;13.93;4.18;;;;;;;;;;5051349;28;20025;-73
2024/01/07 11:56:50;;;;;;;12.77;4.55;;;;;;;;;;5049841;28;20040;-73
2024/01/07 11:59:16;;;;;;;11.60;4.07;;;;;;;;;;5030410;28;20022;-74
2024/01/07 12:01:42;;;;;;;17.25;5.00;;;;;;;;;;5029816;28;20026;-73
2024/01/07 12:04:09;;;;;;;14.65;4.18;;;;;;;;;;5027600;28;20040;-74
2024/01/07 12:06:35;;;;;;;13.10;4.32;;;;;;;;;;5028064;28;20101;-76
2024/01/07 12:09:01;;;;;;;8.73;3.38;;;;;;;;;;5029889;28;20036;-73
2024/01/07 12:11:27;;;;;;;16.75;5.18;;;;;;;;;;5030391;28;20017;-75
2024/01/07 12:13:54;;;;;;;10.90;3.58;;;;;;;;;;5031477;28;20032;-75
2024/01/07 12:16:20;;;;;;;9.50;2.78;;;;;;;;;;5029075;28;20018;-75
2024/01/07 12:18:46;;;;;;;9.45;2.53;;;;;;;;;;5031825;28;20105;-75
2024/01/07 12:21:20;;;;;;;5.88;2.90;;;;;;;;;;5030240;28;20033;-74
2024/01/07 12:23:48;;;;;;;13.02;4.72;;;;;;;;;;5028897;28;20045;-75
2024/01/07 12:26:14;;;;;;;16.05;4.82;;;;;;;;;;5029816;28;20508;-75
2024/01/07 12:28:40;;;;;;;5.13;2.53;;;;;;;;;;5029955;28;20030;-76
2024/01/07 12:31:06;;;;;;;12.52;3.67;;;;;;;;;;5029522;28;20037;-75
2024/01/07 12:33:33;;;;;;;9.05;3.10;;;;;;;;;;5028680;28;20484;-75
2024/01/07 12:36:00;;;;;;;27.60;9.52;;;;;;;;;;5029237;28;20017;-74
2024/01/07 12:38:26;;;;;;;8.60;3.88;;;;;;;;;;5029354;28;20017;-75
2024/01/07 12:40:55;;;;;;;4.68;2.42;;;;;;;;;;5029949;28;20087;-75
2024/01/07 12:43:22;;;;;;;6.10;2.83;;;;;;;;;;5029662;28;20036;-75
2024/01/07 12:45:49;;;;;;;7.57;2.80;;;;;;;;;;5030449;28;20500;-74
2024/01/07 12:48:15;;;;;;;10.07;3.03;;;;;;;;;;5035664;28;20041;-74
2024/01/07 12:50:41;;;;;;;10.13;4.30;;;;;;;;;;5045457;28;20037;-75
2024/01/07 12:53:07;;;;;;;5.35;2.60;;;;;;;;;;5050259;28;20048;-74
2024/01/07 12:55:33;;;;;;;4.82;2.50;;;;;;;;;;5050842;28;20395;-75
2024/01/07 12:57:59;;;;;;;7.40;2.80;;;;;;;;;;5050478;28;20020;-75
2024/01/07 13:00:28;;;;;;;5.93;2.33;;;;;;;;;;5049834;28;20033;-74
2024/01/07 13:02:54;;;;;;;6.88;2.53;;;;;;;;;;5051267;28;20051;-75
2024/01/07 13:05:20;;;;;;;4.60;2.38;;;;;;;;;;5050456;28;20056;-76
2024/01/07 13:07:47;;;;;;;6.05;2.67;;;;;;;;;;5053294;28;20078;-76
2024/01/07 13:10:13;;;;;;;7.45;2.47;;;;;;;;;;5049988;28;20036;-75
2024/01/07 13:12:39;;;;;;;6.10;3.15;;;;;;;;;;5050278;28;20021;-74
2024/01/07 13:15:05;;;;;;;5.40;2.33;;;;;;;;;;5050108;28;20029;-72
2024/01/07 13:17:32;;;;;;;7.28;2.50;;;;;;;;;;5050578;28;20096;-74
2024/01/07 13:19:59;;;;;;;6.32;2.67;;;;;;;;;;5050870;28;20175;-74
2024/01/07 13:22:25;;;;;;;4.25;2.30;;;;;;;;;;5051090;28;20063;-74
2024/01/07 13:24:51;;;;;;;8.40;2.83;;;;;;;;;;5050218;28;20094;-75
2024/01/07 13:27:21;;;;;;;5.70;2.50;;;;;;;;;;5051120;28;20095;-75
2024/01/07 13:29:47;;;;;;;7.47;2.50;;;;;;;;;;5050951;28;20151;-76
2024/01/07 13:32:18;;;;;;;6.47;2.67;;;;;;;;;;5052913;28;20068;-76
2024/01/07 13:34:44;;;;;;;6.03;2.47;;;;;;;;;;5052980;28;20025;-75
2024/01/07 13:37:10;;;;;;;4.40;2.15;;;;;;;;;;5056270;28;20036;-75
2024/01/07 13:39:36;;;;;;;6.68;2.08;;;;;;;;;;5052652;28;20029;-74
2024/01/07 13:42:03;;;;;;;7.07;2.17;;;;;;;;;;5057680;28;20056;-74
2024/01/07 13:44:30;;;;;;;6.20;2.15;;;;;;;;;;5052110;28;20029;-74
2024/01/07 13:46:56;;;;;;;5.75;2.28;;;;;;;;;;5033027;28;20063;-74
2024/01/07 13:49:22;;;;;;;4.00;2.20;;;;;;;;;;5055401;28;20520;-76
2024/01/07 13:51:48;;;;;;;5.22;2.88;;;;;;;;;;5027602;28;20299;-76
2024/01/07 13:54:14;;;;;;;8.50;2.10;;;;;;;;;;5030154;28;20285;-79
2024/01/07 13:56:44;;;;;;;5.45;3.35;;;;;;;;;;5032068;28;20025;-79
2024/01/07 13:59:11;;;;;;;5.22;2.88;;;;;;;;;;5034945;28;20073;-81
2024/01/07 14:01:37;;;;;;;6.28;2.75;;;;;;;;;;5033316;28;20021;-78
2024/01/07 14:04:04;;;;;;;6.93;2.40;;;;;;;;;;5032349;28;20048;-78
2024/01/07 14:06:30;;;;;;;5.07;2.45;;;;;;;;;;5031346;28;20499;-77
2024/01/07 14:08:55;;;;;;;4.43;2.38;;;5.90;1.00;;;;;;5043177;28;20040;-79
2024/01/07 14:11:21;;;;;;;7.10;3.08;;;5.80;1.00;;;;;;5039480;28;20340;-73
2024/01/07 14:13:47;;;;;;;4.95;2.72;;;5.60;1.00;;;;;;5028843;28;20506;-76
2024/01/07 14:16:16;;;;;;;7.10;2.75;;;5.40;99.90;;;;;;5034490;28;20333;-76
2024/01/07 14:18:41;;;;;;;4.93;2.33;;;5.30;99.90;;;;;;5035087;28;20101;-75
2024/01/07 14:21:07;;;;;;;9.18;3.88;;;5.20;99.90;;;;;;5035044;28;20077;-75
2024/01/07 14:25:14;;;;;;;6.85;3.22;;;5.00;1.00;;;;;;5094462;27;20163;-78